sensor_id;sensor_type;location;lat;lon;timestamp;P1;durP1;ratioP1;P2;durP2;ratioP2
6531;SDS011;3299;42.004;24.868;2023-07-08T00:00:21;8.07;;;6.97;;
6531;SDS011;3299;42.004;24.868;2023-07-08T00:02:48;7.47;;;6.35;;
6531;SDS011;3299;42.004;24.868;2023-07-08T00:05:15;7.07;;;6.38;;
6531;SDS011;3299;42.004;24.868;2023-07-08T00:07:42;7.47;;;6.68;;
6531;SDS011;3299;42.004;24.868;2023-07-08T00:12:45;8.25;;;6.97;;
6531;SDS011;3299;42.004;24.868;2023-07-08T00:15:13;6.45;;;5.75;;
6531;SDS011;3299;42.004;24.868;2023-07-08T00:17:38;6.85;;;6.15;;
6531;SDS011;3299;42.004;24.868;2023-07-08T00:20:09;6.30;;;5.78;;
6531;SDS011;3299;42.004;24.868;2023-07-08T00:22:35;6.68;;;5.95;;
6531;SDS011;3299;42.004;24.868;2023-07-08T00:25:01;7.68;;;5.35;;
6531;SDS011;3299;42.004;24.868;2023-07-08T00:27:26;8.90;;;5.82;;
6531;SDS011;3299;42.004;24.868;2023-07-08T00:29:52;6.85;;;5.38;;
6531;SDS011;3299;42.004;24.868;2023-07-08T00:32:17;9.23;;;5.70;;
6531;SDS011;3299;42.004;24.868;2023-07-08T00:34:42;7.63;;;6.03;;
6531;SDS011;3299;42.004;24.868;2023-07-08T00:37:11;9.95;;;6.03;;
6531;SDS011;3299;42.004;24.868;2023-07-08T00:39:38;8.73;;;5.90;;
6531;SDS011;3299;42.004;24.868;2023-07-08T00:42:24;7.45;;;5.78;;
6531;SDS011;3299;42.004;24.868;2023-07-08T00:44:49;6.75;;;6.10;;
6531;SDS011;3299;42.004;24.868;2023-07-08T00:47:15;6.75;;;6.05;;
6531;SDS011;3299;42.004;24.868;2023-07-08T00:49:45;6.65;;;5.95;;
6531;SDS011;3299;42.004;24.868;2023-07-08T00:52:24;7.10;;;6.40;;
6531;SDS011;3299;42.004;24.868;2023-07-08T00:54:55;7.30;;;5.97;;
6531;SDS011;3299;42.004;24.868;2023-07-08T00:57:23;8.55;;;6.60;;
6531;SDS011;3299;42.004;24.868;2023-07-08T01:02:20;7.25;;;6.28;;
6531;SDS011;3299;42.004;24.868;2023-07-08T01:07:35;8.57;;;6.80;;
6531;SDS011;3299;42.004;24.868;2023-07-08T01:10:04;6.63;;;6.03;;
6531;SDS011;3299;42.004;24.868;2023-07-08T01:12:38;7.68;;;6.40;;
6531;SDS011;3299;42.004;24.868;2023-07-08T01:15:10;7.05;;;6.20;;
6531;SDS011;3299;42.004;24.868;2023-07-08T01:17:36;6.95;;;6.20;;
6531;SDS011;3299;42.004;24.868;2023-07-08T01:20:03;8.20;;;6.38;;
6531;SDS011;3299;42.004;24.868;2023-07-08T01:22:31;7.43;;;6.45;;
6531;SDS011;3299;42.004;24.868;2023-07-08T01:24:57;6.93;;;6.22;;
6531;SDS011;3299;42.004;24.868;2023-07-08T01:27:28;6.80;;;5.75;;
6531;SDS011;3299;42.004;24.868;2023-07-08T01:29:57;9.13;;;6.47;;
6531;SDS011;3299;42.004;24.868;2023-07-08T01:32:23;6.55;;;6.03;;
6531;SDS011;3299;42.004;24.868;2023-07-08T01:34:56;7.15;;;5.95;;
6531;SDS011;3299;42.004;24.868;2023-07-08T01:37:34;7.32;;;6.00;;
6531;SDS011;3299;42.004;24.868;2023-07-08T01:42:46;7.88;;;5.95;;
6531;SDS011;3299;42.004;24.868;2023-07-08T01:45:12;7.28;;;6.07;;
6531;SDS011;3299;42.004;24.868;2023-07-08T01:47:40;5.75;;;5.10;;
6531;SDS011;3299;42.004;24.868;2023-07-08T01:50:08;8.25;;;5.80;;
6531;SDS011;3299;42.004;24.868;2023-07-08T01:52:36;6.05;;;5.55;;
6531;SDS011;3299;42.004;24.868;2023-07-08T01:55:02;9.45;;;6.00;;
6531;SDS011;3299;42.004;24.868;2023-07-08T01:57:27;6.90;;;6.18;;
6531;SDS011;3299;42.004;24.868;2023-07-08T01:59:53;7.47;;;6.05;;
6531;SDS011;3299;42.004;24.868;2023-07-08T02:02:18;7.00;;;6.30;;
6531;SDS011;3299;42.004;24.868;2023-07-08T02:04:44;8.65;;;5.90;;
6531;SDS011;3299;42.004;24.868;2023-07-08T02:07:09;6.65;;;6.05;;
6531;SDS011;3299;42.004;24.868;2023-07-08T02:09:34;6.95;;;6.35;;
6531;SDS011;3299;42.004;24.868;2023-07-08T02:12:00;7.38;;;6.47;;
6531;SDS011;3299;42.004;24.868;2023-07-08T02:14:25;9.80;;;6.20;;
6531;SDS011;3299;42.004;24.868;2023-07-08T02:16:51;7.63;;;6.35;;
6531;SDS011;3299;42.004;24.868;2023-07-08T02:19:17;6.80;;;6.05;;
6531;SDS011;3299;42.004;24.868;2023-07-08T02:21:44;7.32;;;6.53;;
6531;SDS011;3299;42.004;24.868;2023-07-08T02:24:09;8.13;;;6.68;;
6531;SDS011;3299;42.004;24.868;2023-07-08T02:26:35;11.43;;;6.93;;
6531;SDS011;3299;42.004;24.868;2023-07-08T02:29:00;10.38;;;7.05;;
6531;SDS011;3299;42.004;24.868;2023-07-08T02:31:26;8.27;;;6.32;;
6531;SDS011;3299;42.004;24.868;2023-07-08T02:33:52;7.45;;;6.15;;
6531;SDS011;3299;42.004;24.868;2023-07-08T02:36:18;7.65;;;6.38;;
6531;SDS011;3299;42.004;24.868;2023-07-08T02:38:44;7.25;;;6.57;;
6531;SDS011;3299;42.004;24.868;2023-07-08T02:41:09;7.88;;;6.57;;
6531;SDS011;3299;42.004;24.868;2023-07-08T02:43:36;8.35;;;7.03;;
6531;SDS011;3299;42.004;24.868;2023-07-08T02:46:02;8.18;;;6.88;;
6531;SDS011;3299;42.004;24.868;2023-07-08T02:48:28;7.82;;;7.03;;
6531;SDS011;3299;42.004;24.868;2023-07-08T02:50:58;8.27;;;7.28;;
6531;SDS011;3299;42.004;24.868;2023-07-08T02:53:27;9.00;;;7.22;;
6531;SDS011;3299;42.004;24.868;2023-07-08T02:55:52;7.70;;;7.00;;
6531;SDS011;3299;42.004;24.868;2023-07-08T02:58:17;10.02;;;7.05;;
6531;SDS011;3299;42.004;24.868;2023-07-08T03:00:43;8.90;;;7.28;;
6531;SDS011;3299;42.004;24.868;2023-07-08T03:03:08;10.15;;;7.78;;
6531;SDS011;3299;42.004;24.868;2023-07-08T03:05:34;8.25;;;7.45;;
6531;SDS011;3299;42.004;24.868;2023-07-08T03:07:59;9.45;;;7.57;;
6531;SDS011;3299;42.004;24.868;2023-07-08T03:10:25;8.15;;;7.30;;
6531;SDS011;3299;42.004;24.868;2023-07-08T03:12:51;8.73;;;7.90;;
6531;SDS011;3299;42.004;24.868;2023-07-08T03:15:16;8.88;;;7.28;;
6531;SDS011;3299;42.004;24.868;2023-07-08T03:17:42;9.25;;;6.85;;
6531;SDS011;3299;42.004;24.868;2023-07-08T03:20:09;7.68;;;6.93;;
6531;SDS011;3299;42.004;24.868;2023-07-08T03:22:36;10.90;;;6.68;;
6531;SDS011;3299;42.004;24.868;2023-07-08T03:25:02;7.90;;;7.10;;
6531;SDS011;3299;42.004;24.868;2023-07-08T03:27:28;7.60;;;6.78;;
6531;SDS011;3299;42.004;24.868;2023-07-08T03:29:53;9.25;;;7.68;;
6531;SDS011;3299;42.004;24.868;2023-07-08T03:32:19;7.75;;;6.95;;
6531;SDS011;3299;42.004;24.868;2023-07-08T03:34:44;8.40;;;7.60;;
6531;SDS011;3299;42.004;24.868;2023-07-08T03:37:10;8.20;;;6.70;;
6531;SDS011;3299;42.004;24.868;2023-07-08T03:39:35;10.85;;;7.20;;
6531;SDS011;3299;42.004;24.868;2023-07-08T03:42:01;8.55;;;6.72;;
6531;SDS011;3299;42.004;24.868;2023-07-08T03:44:28;11.07;;;6.80;;
6531;SDS011;3299;42.004;24.868;2023-07-08T03:46:54;6.90;;;6.20;;
6531;SDS011;3299;42.004;24.868;2023-07-08T03:49:20;8.48;;;5.90;;
6531;SDS011;3299;42.004;24.868;2023-07-08T03:51:49;7.60;;;6.90;;
6531;SDS011;3299;42.004;24.868;2023-07-08T03:54:17;8.35;;;7.47;;
6531;SDS011;3299;42.004;24.868;2023-07-08T03:56:43;10.50;;;7.43;;
6531;SDS011;3299;42.004;24.868;2023-07-08T03:59:08;9.13;;;7.15;;
6531;SDS011;3299;42.004;24.868;2023-07-08T04:01:34;7.82;;;7.07;;
6531;SDS011;3299;42.004;24.868;2023-07-08T04:03:59;8.30;;;7.35;;
6531;SDS011;3299;42.004;24.868;2023-07-08T04:06:25;7.60;;;6.80;;
6531;SDS011;3299;42.004;24.868;2023-07-08T04:08:53;7.63;;;6.93;;
6531;SDS011;3299;42.004;24.868;2023-07-08T04:11:20;10.07;;;7.05;;
6531;SDS011;3299;42.004;24.868;2023-07-08T04:13:48;8.27;;;7.18;;
6531;SDS011;3299;42.004;24.868;2023-07-08T04:16:19;11.48;;;7.63;;
6531;SDS011;3299;42.004;24.868;2023-07-08T04:18:49;8.30;;;7.50;;
6531;SDS011;3299;42.004;24.868;2023-07-08T04:21:18;10.82;;;8.20;;
6531;SDS011;3299;42.004;24.868;2023-07-08T04:23:44;9.18;;;7.57;;
6531;SDS011;3299;42.004;24.868;2023-07-08T04:26:10;9.13;;;7.88;;
6531;SDS011;3299;42.004;24.868;2023-07-08T04:28:35;11.88;;;8.45;;
6531;SDS011;3299;42.004;24.868;2023-07-08T04:31:01;8.85;;;7.95;;
6531;SDS011;3299;42.004;24.868;2023-07-08T04:33:27;9.15;;;8.35;;
6531;SDS011;3299;42.004;24.868;2023-07-08T04:35:52;8.73;;;7.88;;
6531;SDS011;3299;42.004;24.868;2023-07-08T04:38:20;9.45;;;8.45;;
6531;SDS011;3299;42.004;24.868;2023-07-08T04:40:47;11.00;;;8.25;;
6531;SDS011;3299;42.004;24.868;2023-07-08T04:43:14;9.40;;;8.40;;
6531;SDS011;3299;42.004;24.868;2023-07-08T04:45:40;12.88;;;8.95;;
6531;SDS011;3299;42.004;24.868;2023-07-08T04:48:11;10.15;;;8.35;;
6531;SDS011;3299;42.004;24.868;2023-07-08T04:50:43;10.05;;;9.00;;
6531;SDS011;3299;42.004;24.868;2023-07-08T04:53:09;11.07;;;9.77;;
6531;SDS011;3299;42.004;24.868;2023-07-08T04:55:36;9.73;;;8.73;;
6531;SDS011;3299;42.004;24.868;2023-07-08T04:58:04;10.00;;;8.38;;
6531;SDS011;3299;42.004;24.868;2023-07-08T05:00:30;9.50;;;8.38;;
6531;SDS011;3299;42.004;24.868;2023-07-08T05:02:56;9.90;;;8.80;;
6531;SDS011;3299;42.004;24.868;2023-07-08T05:05:21;9.07;;;7.68;;
6531;SDS011;3299;42.004;24.868;2023-07-08T05:07:47;7.95;;;7.07;;
6531;SDS011;3299;42.004;24.868;2023-07-08T05:10:14;8.23;;;7.43;;
6531;SDS011;3299;42.004;24.868;2023-07-08T05:12:41;8.35;;;7.57;;
6531;SDS011;3299;42.004;24.868;2023-07-08T05:15:07;7.93;;;7.15;;
6531;SDS011;3299;42.004;24.868;2023-07-08T05:17:33;7.50;;;6.80;;
6531;SDS011;3299;42.004;24.868;2023-07-08T05:19:59;7.63;;;6.93;;
6531;SDS011;3299;42.004;24.868;2023-07-08T05:22:26;7.47;;;6.72;;
6531;SDS011;3299;42.004;24.868;2023-07-08T05:24:52;8.07;;;7.38;;
6531;SDS011;3299;42.004;24.868;2023-07-08T05:27:21;7.53;;;6.82;;
6531;SDS011;3299;42.004;24.868;2023-07-08T05:29:49;6.70;;;6.07;;
6531;SDS011;3299;42.004;24.868;2023-07-08T05:32:15;6.78;;;6.18;;
6531;SDS011;3299;42.004;24.868;2023-07-08T05:34:42;9.80;;;6.72;;
6531;SDS011;3299;42.004;24.868;2023-07-08T05:37:08;6.15;;;5.65;;
6531;SDS011;3299;42.004;24.868;2023-07-08T05:39:33;5.90;;;5.35;;
6531;SDS011;3299;42.004;24.868;2023-07-08T05:41:59;6.60;;;6.00;;
6531;SDS011;3299;42.004;24.868;2023-07-08T05:44:25;6.68;;;6.03;;
6531;SDS011;3299;42.004;24.868;2023-07-08T05:46:50;6.25;;;5.65;;
6531;SDS011;3299;42.004;24.868;2023-07-08T05:49:16;7.28;;;6.05;;
6531;SDS011;3299;42.004;24.868;2023-07-08T05:51:43;6.47;;;5.88;;
6531;SDS011;3299;42.004;24.868;2023-07-08T05:54:09;7.97;;;5.78;;
6531;SDS011;3299;42.004;24.868;2023-07-08T05:56:35;6.72;;;6.13;;
6531;SDS011;3299;42.004;24.868;2023-07-08T05:59:00;6.32;;;5.72;;
6531;SDS011;3299;42.004;24.868;2023-07-08T06:01:26;6.68;;;6.00;;
6531;SDS011;3299;42.004;24.868;2023-07-08T06:03:51;5.90;;;5.40;;
6531;SDS011;3299;42.004;24.868;2023-07-08T06:06:17;6.45;;;5.85;;
6531;SDS011;3299;42.004;24.868;2023-07-08T06:08:43;5.65;;;5.15;;
6531;SDS011;3299;42.004;24.868;2023-07-08T06:11:08;5.97;;;5.35;;
6531;SDS011;3299;42.004;24.868;2023-07-08T06:13:34;5.63;;;5.13;;
6531;SDS011;3299;42.004;24.868;2023-07-08T06:15:59;5.75;;;5.07;;
6531;SDS011;3299;42.004;24.868;2023-07-08T06:18:24;6.38;;;5.47;;
6531;SDS011;3299;42.004;24.868;2023-07-08T06:20:51;6.28;;;5.43;;
6531;SDS011;3299;42.004;24.868;2023-07-08T06:23:17;5.95;;;5.35;;
6531;SDS011;3299;42.004;24.868;2023-07-08T06:25:42;6.53;;;5.97;;
6531;SDS011;3299;42.004;24.868;2023-07-08T06:28:08;9.18;;;7.20;;
6531;SDS011;3299;42.004;24.868;2023-07-08T06:30:33;5.45;;;4.95;;
6531;SDS011;3299;42.004;24.868;2023-07-08T06:32:59;5.90;;;5.38;;
6531;SDS011;3299;42.004;24.868;2023-07-08T06:35:24;6.72;;;4.82;;
6531;SDS011;3299;42.004;24.868;2023-07-08T06:37:49;5.50;;;5.00;;
6531;SDS011;3299;42.004;24.868;2023-07-08T06:40:15;5.10;;;4.47;;
6531;SDS011;3299;42.004;24.868;2023-07-08T06:42:42;6.25;;;4.10;;
6531;SDS011;3299;42.004;24.868;2023-07-08T06:45:07;5.10;;;4.28;;
6531;SDS011;3299;42.004;24.868;2023-07-08T06:47:33;7.18;;;4.53;;
6531;SDS011;3299;42.004;24.868;2023-07-08T06:49:59;5.20;;;4.60;;
6531;SDS011;3299;42.004;24.868;2023-07-08T06:52:24;5.57;;;5.03;;
6531;SDS011;3299;42.004;24.868;2023-07-08T06:54:49;5.50;;;4.30;;
6531;SDS011;3299;42.004;24.868;2023-07-08T06:57:15;4.95;;;4.40;;
6531;SDS011;3299;42.004;24.868;2023-07-08T06:59:40;4.88;;;4.50;;
6531;SDS011;3299;42.004;24.868;2023-07-08T07:02:06;8.52;;;5.00;;
6531;SDS011;3299;42.004;24.868;2023-07-08T07:04:31;6.90;;;5.60;;
6531;SDS011;3299;42.004;24.868;2023-07-08T07:06:57;5.55;;;5.05;;
6531;SDS011;3299;42.004;24.868;2023-07-08T07:09:23;10.23;;;5.05;;
6531;SDS011;3299;42.004;24.868;2023-07-08T07:11:48;6.97;;;5.10;;
6531;SDS011;3299;42.004;24.868;2023-07-08T07:14:13;5.45;;;4.90;;
6531;SDS011;3299;42.004;24.868;2023-07-08T07:16:39;4.63;;;4.22;;
6531;SDS011;3299;42.004;24.868;2023-07-08T07:19:04;6.00;;;4.68;;
6531;SDS011;3299;42.004;24.868;2023-07-08T07:21:30;6.00;;;4.70;;
6531;SDS011;3299;42.004;24.868;2023-07-08T07:23:55;5.63;;;4.97;;
6531;SDS011;3299;42.004;24.868;2023-07-08T07:26:20;6.78;;;5.32;;
6531;SDS011;3299;42.004;24.868;2023-07-08T07:28:46;8.35;;;4.25;;
6531;SDS011;3299;42.004;24.868;2023-07-08T07:31:11;6.65;;;4.97;;
6531;SDS011;3299;42.004;24.868;2023-07-08T07:33:37;6.05;;;4.20;;
6531;SDS011;3299;42.004;24.868;2023-07-08T07:36:02;5.80;;;4.90;;
6531;SDS011;3299;42.004;24.868;2023-07-08T07:38:28;5.95;;;4.53;;
6531;SDS011;3299;42.004;24.868;2023-07-08T07:40:55;4.20;;;3.90;;
6531;SDS011;3299;42.004;24.868;2023-07-08T07:43:21;4.85;;;4.45;;
6531;SDS011;3299;42.004;24.868;2023-07-08T07:45:52;4.70;;;4.30;;
6531;SDS011;3299;42.004;24.868;2023-07-08T07:48:19;5.93;;;4.40;;
6531;SDS011;3299;42.004;24.868;2023-07-08T07:50:46;7.55;;;4.57;;
6531;SDS011;3299;42.004;24.868;2023-07-08T07:53:12;5.47;;;4.85;;
6531;SDS011;3299;42.004;24.868;2023-07-08T07:55:37;4.70;;;4.30;;
6531;SDS011;3299;42.004;24.868;2023-07-08T07:58:03;5.85;;;4.50;;
6531;SDS011;3299;42.004;24.868;2023-07-08T08:00:30;6.28;;;4.40;;
6531;SDS011;3299;42.004;24.868;2023-07-08T08:02:55;4.72;;;3.67;;
6531;SDS011;3299;42.004;24.868;2023-07-08T08:05:21;4.53;;;4.05;;
6531;SDS011;3299;42.004;24.868;2023-07-08T08:07:46;4.90;;;4.50;;
6531;SDS011;3299;42.004;24.868;2023-07-08T08:10:13;4.68;;;4.00;;
6531;SDS011;3299;42.004;24.868;2023-07-08T08:12:38;4.90;;;4.40;;
6531;SDS011;3299;42.004;24.868;2023-07-08T08:15:04;4.68;;;4.10;;
6531;SDS011;3299;42.004;24.868;2023-07-08T08:17:30;4.53;;;4.10;;
6531;SDS011;3299;42.004;24.868;2023-07-08T08:19:55;4.63;;;4.20;;
6531;SDS011;3299;42.004;24.868;2023-07-08T08:22:20;4.22;;;3.92;;
6531;SDS011;3299;42.004;24.868;2023-07-08T08:24:46;4.18;;;3.85;;
6531;SDS011;3299;42.004;24.868;2023-07-08T08:27:11;6.47;;;4.80;;
6531;SDS011;3299;42.004;24.868;2023-07-08T08:29:37;5.15;;;4.32;;
6531;SDS011;3299;42.004;24.868;2023-07-08T08:32:02;4.78;;;4.35;;
6531;SDS011;3299;42.004;24.868;2023-07-08T08:34:28;8.23;;;5.25;;
6531;SDS011;3299;42.004;24.868;2023-07-08T08:36:53;8.88;;;4.50;;
6531;SDS011;3299;42.004;24.868;2023-07-08T08:39:20;4.68;;;4.38;;
6531;SDS011;3299;42.004;24.868;2023-07-08T08:41:46;5.63;;;4.45;;
6531;SDS011;3299;42.004;24.868;2023-07-08T08:44:15;5.90;;;4.40;;
6531;SDS011;3299;42.004;24.868;2023-07-08T08:46:51;4.30;;;3.90;;
6531;SDS011;3299;42.004;24.868;2023-07-08T08:49:44;4.10;;;3.70;;
6531;SDS011;3299;42.004;24.868;2023-07-08T08:52:14;3.88;;;3.50;;
6531;SDS011;3299;42.004;24.868;2023-07-08T08:54:39;3.85;;;3.45;;
6531;SDS011;3299;42.004;24.868;2023-07-08T09:00:07;4.28;;;3.97;;
6531;SDS011;3299;42.004;24.868;2023-07-08T09:02:36;4.22;;;3.92;;
6531;SDS011;3299;42.004;24.868;2023-07-08T09:05:09;4.63;;;3.75;;
6531;SDS011;3299;42.004;24.868;2023-07-08T09:07:46;3.75;;;3.50;;
6531;SDS011;3299;42.004;24.868;2023-07-08T09:12:54;4.65;;;3.22;;
6531;SDS011;3299;42.004;24.868;2023-07-08T09:15:22;4.15;;;3.75;;
6531;SDS011;3299;42.004;24.868;2023-07-08T09:17:50;3.35;;;3.15;;
6531;SDS011;3299;42.004;24.868;2023-07-08T09:22:59;3.80;;;3.33;;
6531;SDS011;3299;42.004;24.868;2023-07-08T09:25:34;4.53;;;3.30;;
6531;SDS011;3299;42.004;24.868;2023-07-08T09:28:18;3.30;;;2.85;;
6531;SDS011;3299;42.004;24.868;2023-07-08T09:30:47;3.60;;;3.40;;
6531;SDS011;3299;42.004;24.868;2023-07-08T09:33:16;3.50;;;3.22;;
6531;SDS011;3299;42.004;24.868;2023-07-08T09:35:43;4.55;;;3.30;;
6531;SDS011;3299;42.004;24.868;2023-07-08T09:38:15;3.35;;;3.05;;
6531;SDS011;3299;42.004;24.868;2023-07-08T09:40:49;3.53;;;3.22;;
6531;SDS011;3299;42.004;24.868;2023-07-08T09:45:51;4.15;;;3.85;;
6531;SDS011;3299;42.004;24.868;2023-07-08T09:48:23;3.95;;;3.40;;
6531;SDS011;3299;42.004;24.868;2023-07-08T09:50:51;3.38;;;3.00;;
6531;SDS011;3299;42.004;24.868;2023-07-08T09:53:18;3.53;;;3.22;;
6531;SDS011;3299;42.004;24.868;2023-07-08T09:55:44;3.53;;;3.22;;
6531;SDS011;3299;42.004;24.868;2023-07-08T09:58:23;5.47;;;3.75;;
6531;SDS011;3299;42.004;24.868;2023-07-08T10:00:52;4.55;;;3.30;;
6531;SDS011;3299;42.004;24.868;2023-07-08T10:03:27;3.33;;;3.03;;
6531;SDS011;3299;42.004;24.868;2023-07-08T10:05:57;7.05;;;3.25;;
6531;SDS011;3299;42.004;24.868;2023-07-08T10:08:28;3.50;;;3.20;;
6531;SDS011;3299;42.004;24.868;2023-07-08T10:11:12;6.18;;;3.40;;
6531;SDS011;3299;42.004;24.868;2023-07-08T10:13:41;3.95;;;3.28;;
6531;SDS011;3299;42.004;24.868;2023-07-08T10:18:38;3.60;;;3.30;;
6531;SDS011;3299;42.004;24.868;2023-07-08T10:26:26;3.90;;;3.50;;
6531;SDS011;3299;42.004;24.868;2023-07-08T10:31:53;3.30;;;3.10;;
6531;SDS011;3299;42.004;24.868;2023-07-08T10:34:45;4.70;;;3.40;;
6531;SDS011;3299;42.004;24.868;2023-07-08T10:40:07;4.50;;;3.50;;
6531;SDS011;3299;42.004;24.868;2023-07-08T10:48:46;5.70;;;2.88;;
6531;SDS011;3299;42.004;24.868;2023-07-08T10:51:26;3.30;;;3.10;;
6531;SDS011;3299;42.004;24.868;2023-07-08T10:56:41;3.53;;;3.33;;
6531;SDS011;3299;42.004;24.868;2023-07-08T10:59:59;4.10;;;3.70;;
6531;SDS011;3299;42.004;24.868;2023-07-08T11:02:15;3.80;;;3.50;;
6531;SDS011;3299;42.004;24.868;2023-07-08T11:04:53;3.40;;;3.20;;
6531;SDS011;3299;42.004;24.868;2023-07-08T11:07:39;3.17;;;2.97;;
6531;SDS011;3299;42.004;24.868;2023-07-08T11:10:12;4.40;;;3.42;;
6531;SDS011;3299;42.004;24.868;2023-07-08T11:12:57;3.50;;;3.20;;
6531;SDS011;3299;42.004;24.868;2023-07-08T11:15:29;5.47;;;3.10;;
6531;SDS011;3299;42.004;24.868;2023-07-08T11:18:09;4.25;;;2.70;;
6531;SDS011;3299;42.004;24.868;2023-07-08T11:20:57;3.15;;;2.95;;
6531;SDS011;3299;42.004;24.868;2023-07-08T11:26:17;3.50;;;3.20;;
6531;SDS011;3299;42.004;24.868;2023-07-08T11:28:49;3.20;;;3.00;;
6531;SDS011;3299;42.004;24.868;2023-07-08T11:31:18;3.65;;;3.35;;
6531;SDS011;3299;42.004;24.868;2023-07-08T11:33:45;4.22;;;3.03;;
6531;SDS011;3299;42.004;24.868;2023-07-08T11:36:11;3.42;;;3.17;;
6531;SDS011;3299;42.004;24.868;2023-07-08T11:38:44;3.47;;;3.17;;
6531;SDS011;3299;42.004;24.868;2023-07-08T11:41:17;3.45;;;3.08;;
6531;SDS011;3299;42.004;24.868;2023-07-08T11:43:48;3.10;;;2.90;;
6531;SDS011;3299;42.004;24.868;2023-07-08T11:46:26;5.03;;;3.28;;
6531;SDS011;3299;42.004;24.868;2023-07-08T11:49:00;3.50;;;3.20;;
6531;SDS011;3299;42.004;24.868;2023-07-08T11:51:39;4.32;;;3.45;;
6531;SDS011;3299;42.004;24.868;2023-07-08T11:54:12;4.53;;;3.05;;
6531;SDS011;3299;42.004;24.868;2023-07-08T11:59:24;3.33;;;2.78;;
6531;SDS011;3299;42.004;24.868;2023-07-08T12:01:53;4.38;;;2.70;;
6531;SDS011;3299;42.004;24.868;2023-07-08T12:07:30;2.67;;;2.47;;
6531;SDS011;3299;42.004;24.868;2023-07-08T12:10:13;2.88;;;2.60;;
6531;SDS011;3299;42.004;24.868;2023-07-08T12:12:43;2.95;;;2.75;;
6531;SDS011;3299;42.004;24.868;2023-07-08T12:18:01;3.83;;;3.10;;
6531;SDS011;3299;42.004;24.868;2023-07-08T12:20:32;4.18;;;3.03;;
6531;SDS011;3299;42.004;24.868;2023-07-08T12:23:00;3.40;;;3.10;;
6531;SDS011;3299;42.004;24.868;2023-07-08T12:25:32;3.70;;;3.17;;
6531;SDS011;3299;42.004;24.868;2023-07-08T12:28:00;3.15;;;2.95;;
6531;SDS011;3299;42.004;24.868;2023-07-08T12:30:27;3.25;;;2.92;;
6531;SDS011;3299;42.004;24.868;2023-07-08T12:32:54;2.92;;;2.72;;
6531;SDS011;3299;42.004;24.868;2023-07-08T12:35:27;4.38;;;3.00;;
6531;SDS011;3299;42.004;24.868;2023-07-08T12:37:57;4.38;;;3.08;;
6531;SDS011;3299;42.004;24.868;2023-07-08T12:40:26;3.42;;;3.00;;
6531;SDS011;3299;42.004;24.868;2023-07-08T12:42:52;3.13;;;2.92;;
6531;SDS011;3299;42.004;24.868;2023-07-08T12:45:19;4.90;;;3.17;;
6531;SDS011;3299;42.004;24.868;2023-07-08T12:47:46;3.33;;;2.95;;
6531;SDS011;3299;42.004;24.868;2023-07-08T12:50:12;2.80;;;2.58;;
6531;SDS011;3299;42.004;24.868;2023-07-08T12:52:38;2.70;;;2.50;;
6531;SDS011;3299;42.004;24.868;2023-07-08T12:55:05;3.80;;;2.85;;
6531;SDS011;3299;42.004;24.868;2023-07-08T12:57:32;3.53;;;3.20;;
6531;SDS011;3299;42.004;24.868;2023-07-08T12:59:58;4.88;;;2.90;;
6531;SDS011;3299;42.004;24.868;2023-07-08T13:02:25;3.30;;;3.00;;
6531;SDS011;3299;42.004;24.868;2023-07-08T13:04:55;2.80;;;2.60;;
6531;SDS011;3299;42.004;24.868;2023-07-08T13:09:53;2.85;;;2.65;;
6531;SDS011;3299;42.004;24.868;2023-07-08T13:12:20;7.80;;;3.15;;
6531;SDS011;3299;42.004;24.868;2023-07-08T13:14:49;5.65;;;3.08;;
6531;SDS011;3299;42.004;24.868;2023-07-08T13:17:18;4.68;;;3.65;;
6531;SDS011;3299;42.004;24.868;2023-07-08T13:19:44;4.43;;;3.30;;
6531;SDS011;3299;42.004;24.868;2023-07-08T13:22:17;3.65;;;3.35;;
6531;SDS011;3299;42.004;24.868;2023-07-08T13:24:44;4.10;;;3.72;;
6531;SDS011;3299;42.004;24.868;2023-07-08T13:27:16;3.40;;;3.17;;
6531;SDS011;3299;42.004;24.868;2023-07-08T13:29:46;3.13;;;2.90;;
6531;SDS011;3299;42.004;24.868;2023-07-08T13:32:12;3.92;;;2.80;;
6531;SDS011;3299;42.004;24.868;2023-07-08T13:34:38;6.45;;;4.30;;
6531;SDS011;3299;42.004;24.868;2023-07-08T13:37:08;12.07;;;5.43;;
6531;SDS011;3299;42.004;24.868;2023-07-08T13:39:36;6.60;;;4.85;;
6531;SDS011;3299;42.004;24.868;2023-07-08T13:42:02;4.82;;;3.80;;
6531;SDS011;3299;42.004;24.868;2023-07-08T13:44:31;6.95;;;4.72;;
6531;SDS011;3299;42.004;24.868;2023-07-08T13:46:57;11.65;;;5.78;;
6531;SDS011;3299;42.004;24.868;2023-07-08T13:54:39;4.50;;;3.90;;
6531;SDS011;3299;42.004;24.868;2023-07-08T13:57:12;6.60;;;3.53;;
6531;SDS011;3299;42.004;24.868;2023-07-08T13:59:42;6.47;;;3.88;;
6531;SDS011;3299;42.004;24.868;2023-07-08T14:02:17;8.07;;;4.47;;
6531;SDS011;3299;42.004;24.868;2023-07-08T14:04:47;6.45;;;3.60;;
6531;SDS011;3299;42.004;24.868;2023-07-08T14:07:15;2.70;;;2.50;;
6531;SDS011;3299;42.004;24.868;2023-07-08T14:09:43;3.75;;;2.72;;
6531;SDS011;3299;42.004;24.868;2023-07-08T14:12:09;3.60;;;3.20;;
6531;SDS011;3299;42.004;24.868;2023-07-08T14:14:35;4.07;;;3.30;;
6531;SDS011;3299;42.004;24.868;2023-07-08T14:17:00;4.55;;;2.90;;
6531;SDS011;3299;42.004;24.868;2023-07-08T14:19:27;4.45;;;2.63;;
6531;SDS011;3299;42.004;24.868;2023-07-08T14:22:00;3.25;;;2.95;;
6531;SDS011;3299;42.004;24.868;2023-07-08T14:24:27;2.42;;;2.03;;
6531;SDS011;3299;42.004;24.868;2023-07-08T14:26:53;2.38;;;2.10;;
6531;SDS011;3299;42.004;24.868;2023-07-08T14:29:19;2.53;;;2.03;;
6531;SDS011;3299;42.004;24.868;2023-07-08T14:31:44;2.50;;;2.17;;
6531;SDS011;3299;42.004;24.868;2023-07-08T14:34:13;3.45;;;2.70;;
6531;SDS011;3299;42.004;24.868;2023-07-08T14:36:46;3.40;;;3.10;;
6531;SDS011;3299;42.004;24.868;2023-07-08T14:39:12;3.22;;;2.92;;
6531;SDS011;3299;42.004;24.868;2023-07-08T14:41:39;4.03;;;3.25;;
6531;SDS011;3299;42.004;24.868;2023-07-08T14:44:12;5.57;;;3.53;;
6531;SDS011;3299;42.004;24.868;2023-07-08T14:46:45;5.22;;;3.67;;
6531;SDS011;3299;42.004;24.868;2023-07-08T14:49:17;5.97;;;3.70;;
6531;SDS011;3299;42.004;24.868;2023-07-08T14:51:44;7.25;;;3.58;;
6531;SDS011;3299;42.004;24.868;2023-07-08T14:54:10;5.07;;;3.65;;
6531;SDS011;3299;42.004;24.868;2023-07-08T14:56:35;4.25;;;3.55;;
6531;SDS011;3299;42.004;24.868;2023-07-08T14:59:01;5.13;;;3.42;;
6531;SDS011;3299;42.004;24.868;2023-07-08T15:01:27;3.85;;;3.55;;
6531;SDS011;3299;42.004;24.868;2023-07-08T15:03:55;3.05;;;2.80;;
6531;SDS011;3299;42.004;24.868;2023-07-08T15:06:23;2.50;;;2.30;;
6531;SDS011;3299;42.004;24.868;2023-07-08T15:08:49;2.75;;;2.50;;
6531;SDS011;3299;42.004;24.868;2023-07-08T15:11:15;3.35;;;2.92;;
6531;SDS011;3299;42.004;24.868;2023-07-08T15:13:42;2.60;;;2.40;;
6531;SDS011;3299;42.004;24.868;2023-07-08T15:16:13;3.15;;;2.22;;
6531;SDS011;3299;42.004;24.868;2023-07-08T15:18:40;2.92;;;2.10;;
6531;SDS011;3299;42.004;24.868;2023-07-08T15:21:09;2.38;;;2.10;;
6531;SDS011;3299;42.004;24.868;2023-07-08T15:23:36;4.22;;;2.53;;
6531;SDS011;3299;42.004;24.868;2023-07-08T15:26:01;2.83;;;1.95;;
6531;SDS011;3299;42.004;24.868;2023-07-08T15:31:14;2.97;;;2.67;;
6531;SDS011;3299;42.004;24.868;2023-07-08T15:33:42;2.63;;;2.00;;
6531;SDS011;3299;42.004;24.868;2023-07-08T15:36:08;1.90;;;1.80;;
6531;SDS011;3299;42.004;24.868;2023-07-08T15:38:36;2.92;;;2.72;;
6531;SDS011;3299;42.004;24.868;2023-07-08T15:41:01;2.55;;;2.17;;
6531;SDS011;3299;42.004;24.868;2023-07-08T15:43:29;4.70;;;3.40;;
6531;SDS011;3299;42.004;24.868;2023-07-08T15:45:54;2.92;;;1.95;;
6531;SDS011;3299;42.004;24.868;2023-07-08T15:48:20;2.65;;;2.45;;
6531;SDS011;3299;42.004;24.868;2023-07-08T15:50:46;4.55;;;2.75;;
6531;SDS011;3299;42.004;24.868;2023-07-08T15:53:14;3.05;;;2.85;;
6531;SDS011;3299;42.004;24.868;2023-07-08T15:55:41;2.88;;;2.67;;
6531;SDS011;3299;42.004;24.868;2023-07-08T16:00:43;3.10;;;2.17;;
6531;SDS011;3299;42.004;24.868;2023-07-08T16:03:13;4.07;;;2.58;;
6531;SDS011;3299;42.004;24.868;2023-07-08T16:05:51;3.60;;;2.67;;
6531;SDS011;3299;42.004;24.868;2023-07-08T16:08:17;3.38;;;2.80;;
6531;SDS011;3299;42.004;24.868;2023-07-08T16:10:44;3.88;;;3.20;;
6531;SDS011;3299;42.004;24.868;2023-07-08T16:13:16;2.80;;;2.60;;